createdAt,value
2022-11-22T00:00:42.815Z,7.16
2022-11-22T00:02:45.896Z,7.14
2022-11-22T00:04:48.563Z,7.15
2022-11-22T00:06:51.324Z,7.13
2022-11-22T00:08:53.892Z,7.11
2022-11-22T00:10:57.864Z,7.13
2022-11-22T00:13:00.786Z,7.13
2022-11-22T00:15:03.660Z,7.13
2022-11-22T00:17:06.354Z,7.15
2022-11-22T00:19:09.941Z,7.17
2022-11-22T00:21:12.578Z,7.15
2022-11-22T00:23:15.177Z,7.19
2022-11-22T00:25:17.984Z,7.20
2022-11-22T00:27:22.531Z,7.21
2022-11-22T00:29:25.194Z,7.21
2022-11-22T00:31:27.758Z,7.22
2022-11-22T00:33:30.390Z,7.23
2022-11-22T00:35:33.263Z,7.25
2022-11-22T00:37:35.900Z,7.25
2022-11-22T00:39:38.543Z,7.24
2022-11-22T00:41:41.151Z,7.23
2022-11-22T00:43:45.120Z,7.24
2022-11-22T00:45:47.715Z,7.23
2022-11-22T00:47:50.288Z,7.24
2022-11-22T00:49:52.886Z,7.22
2022-11-22T00:51:55.540Z,7.21
2022-11-22T00:53:58.157Z,7.21
2022-11-22T00:56:00.776Z,7.21
2022-11-22T00:58:03.352Z,7.20
2022-11-22T01:00:09.193Z,7.19
2022-11-22T01:02:11.909Z,7.15
2022-11-22T01:04:14.531Z,7.17
2022-11-22T01:06:17.134Z,7.15
2022-11-22T01:08:19.781Z,7.14
2022-11-22T01:10:22.837Z,7.17
2022-11-22T01:12:25.440Z,7.22
2022-11-22T01:14:28.035Z,7.20
2022-11-22T01:16:31.983Z,7.32
2022-11-22T01:18:35.064Z,7.29
2022-11-22T01:20:37.689Z,7.40
2022-11-22T01:22:40.284Z,7.32
2022-11-22T01:24:42.885Z,7.30
2022-11-22T01:26:45.463Z,7.31
2022-11-22T01:28:48.041Z,7.29
2022-11-22T01:30:52.305Z,7.33
2022-11-22T01:32:56.252Z,7.33
2022-11-22T01:34:58.888Z,7.48
2022-11-22T01:37:01.440Z,7.45
2022-11-22T01:39:04.334Z,7.40
2022-11-22T01:41:06.965Z,7.39
2022-11-22T01:43:17.966Z,7.39
2022-11-22T01:45:43.157Z,7.42
2022-11-22T01:47:45.873Z,7.38
2022-11-22T01:49:55.768Z,7.34
2022-11-22T01:52:04.072Z,7.35
2022-11-22T01:54:14.825Z,7.33
2022-11-22T01:56:20.664Z,7.35
2022-11-22T01:58:24.782Z,7.41
2022-11-22T02:00:27.726Z,7.33
2022-11-22T02:02:30.411Z,7.32
2022-11-22T02:04:35.530Z,7.37
2022-11-22T02:06:47.817Z,7.34
2022-11-22T02:08:56.074Z,7.32
2022-11-22T02:11:02.418Z,7.28
2022-11-22T02:13:06.100Z,7.36
2022-11-22T02:15:09.935Z,7.32
2022-11-22T02:17:12.612Z,7.25
2022-11-22T02:19:20.185Z,7.28
2022-11-22T02:21:22.842Z,7.24
2022-11-22T02:23:35.981Z,7.22
2022-11-22T02:25:50.619Z,7.21
2022-11-22T02:27:53.557Z,7.21
2022-11-22T02:29:56.210Z,7.21
2022-11-22T02:31:58.830Z,7.25
2022-11-22T02:34:01.927Z,7.25
2022-11-22T02:36:05.220Z,7.26
2022-11-22T02:38:10.458Z,7.27
2022-11-22T02:40:16.168Z,7.27
2022-11-22T02:42:20.170Z,7.25
2022-11-22T02:44:23.527Z,7.21
2022-11-22T02:46:26.099Z,7.33
2022-11-22T02:48:28.684Z,7.26
2022-11-22T02:50:31.347Z,7.24
2022-11-22T02:52:33.950Z,7.24
2022-11-22T02:54:36.516Z,7.22
2022-11-22T02:56:39.198Z,7.24
2022-11-22T02:58:44.355Z,7.21
2022-11-22T03:00:46.983Z,7.19
2022-11-22T03:02:49.768Z,7.16
2022-11-22T03:04:52.343Z,7.19
2022-11-22T03:06:56.579Z,7.17
2022-11-22T03:08:59.229Z,7.16
2022-11-22T03:11:01.865Z,7.15
2022-11-22T03:13:04.870Z,7.13
2022-11-22T03:15:09.317Z,7.13
2022-11-22T03:17:11.979Z,7.09
2022-11-22T03:19:15.201Z,7.08
2022-11-22T03:21:17.859Z,7.07
2022-11-22T03:23:20.448Z,7.07
2022-11-22T03:25:23.190Z,7.07
2022-11-22T03:27:25.823Z,7.05
2022-11-22T03:29:28.868Z,7.06
2022-11-22T03:31:33.100Z,7.04
2022-11-22T03:33:36.717Z,7.01
2022-11-22T03:35:39.388Z,7.01
2022-11-22T03:37:41.970Z,7.01
2022-11-22T03:39:44.557Z,7.00
2022-11-22T03:41:47.204Z,7.00
2022-11-22T03:43:49.821Z,6.98
2022-11-22T03:45:52.466Z,6.98
2022-11-22T03:47:56.737Z,6.97
2022-11-22T03:49:59.332Z,6.97
2022-11-22T03:52:01.955Z,6.97
2022-11-22T03:54:04.680Z,6.93
2022-11-22T03:56:07.601Z,6.91
2022-11-22T03:58:10.234Z,6.91
2022-11-22T04:00:13.892Z,6.93
2022-11-22T04:02:16.975Z,6.96
2022-11-22T04:04:21.007Z,6.93
2022-11-22T04:06:23.597Z,6.98
2022-11-22T04:08:26.219Z,6.95
2022-11-22T04:10:28.846Z,6.97
2022-11-22T04:12:31.924Z,7.02
2022-11-22T04:14:52.007Z,7.01
2022-11-22T04:16:54.602Z,6.94
2022-11-22T04:18:57.192Z,6.96
2022-11-22T04:21:18.467Z,6.92
2022-11-22T04:23:22.598Z,6.95
2022-11-22T04:25:24.685Z,6.90
2022-11-22T04:27:27.252Z,6.89
2022-11-22T04:29:30.065Z,6.85
2022-11-22T04:31:50.169Z,6.83
2022-11-22T04:33:52.773Z,6.82
2022-11-22T04:35:55.801Z,6.90
2022-11-22T04:37:59.756Z,6.82
2022-11-22T04:40:02.352Z,6.76
2022-11-22T04:42:22.674Z,6.74
2022-11-22T04:44:43.625Z,6.69
2022-11-22T04:46:46.210Z,6.63
2022-11-22T04:48:48.809Z,6.59
2022-11-22T04:51:09.180Z,6.69
2022-11-22T04:53:13.373Z,6.57
2022-11-22T04:55:16.032Z,6.56
2022-11-22T04:57:18.644Z,6.51
2022-11-22T04:59:21.277Z,6.52
2022-11-22T05:01:23.904Z,6.50
2022-11-22T05:03:26.510Z,6.47
2022-11-22T05:05:29.616Z,6.46
2022-11-22T05:07:34.251Z,6.45
2022-11-22T05:09:38.258Z,6.42
2022-11-22T05:11:40.922Z,6.44
2022-11-22T05:13:44.028Z,6.46
2022-11-22T05:15:46.598Z,6.47
2022-11-22T05:17:49.190Z,6.44
2022-11-22T05:19:51.819Z,6.42
2022-11-22T05:21:54.414Z,6.38
2022-11-22T05:23:56.225Z,6.38
2022-11-22T05:26:00.851Z,6.40
2022-11-22T05:28:03.461Z,6.38
2022-11-22T05:30:08.019Z,6.38
2022-11-22T05:32:10.611Z,6.28
2022-11-22T05:34:13.166Z,6.28
2022-11-22T05:36:16.290Z,6.19
2022-11-22T05:38:18.895Z,6.20
2022-11-22T05:40:21.488Z,6.16
2022-11-22T05:42:25.508Z,6.16
2022-11-22T05:44:28.132Z,6.18
2022-11-22T05:46:31.709Z,6.17
2022-11-22T05:48:34.400Z,6.19
2022-11-22T05:50:36.965Z,6.16
2022-11-22T05:52:39.540Z,6.19
2022-11-22T05:54:42.133Z,6.17
2022-11-22T05:56:44.695Z,6.22
2022-11-22T05:58:49.088Z,6.23
2022-11-22T06:00:51.665Z,6.30
2022-11-22T06:02:54.301Z,6.32
2022-11-22T06:04:56.899Z,6.32
2022-11-22T06:06:59.495Z,6.43
2022-11-22T06:09:02.258Z,6.43
2022-11-22T06:11:06.115Z,6.40
2022-11-22T06:13:08.729Z,6.42
2022-11-22T06:15:12.954Z,6.48
2022-11-22T06:17:15.526Z,6.48
2022-11-22T06:19:18.726Z,6.50
2022-11-22T06:21:23.803Z,6.51
2022-11-22T06:23:26.521Z,6.55
2022-11-22T06:25:29.275Z,6.65
2022-11-22T06:27:31.905Z,6.60
2022-11-22T06:29:34.525Z,6.58
2022-11-22T06:31:38.445Z,6.54
2022-11-22T06:33:41.967Z,6.58
2022-11-22T06:35:44.681Z,6.59
2022-11-22T06:37:47.352Z,6.60
2022-11-22T06:39:50.233Z,6.59
2022-11-22T06:41:52.901Z,6.56
2022-11-22T06:43:57.549Z,6.53
2022-11-22T06:46:01.350Z,6.55
2022-11-22T06:48:06.058Z,6.56
2022-11-22T06:50:09.198Z,6.57
2022-11-22T06:52:12.402Z,6.59
2022-11-22T06:54:15.190Z,6.57
2022-11-22T06:56:19.848Z,6.64
2022-11-22T06:58:22.462Z,6.59
2022-11-22T07:00:25.087Z,6.70
2022-11-22T07:02:27.746Z,6.69
2022-11-22T07:04:31.713Z,6.76
2022-11-22T07:06:36.071Z,6.73
2022-11-22T07:08:39.303Z,6.74
2022-11-22T07:10:41.901Z,6.76
2022-11-22T07:12:44.511Z,6.77
2022-11-22T07:14:47.127Z,6.78
2022-11-22T07:16:49.760Z,6.80
2022-11-22T07:18:52.640Z,6.84
2022-11-22T07:21:01.727Z,6.88
2022-11-22T07:23:04.297Z,6.83
2022-11-22T07:25:07.775Z,6.83
2022-11-22T07:27:10.349Z,6.84
2022-11-22T07:29:12.980Z,6.85
2022-11-22T07:31:16.719Z,6.84
2022-11-22T07:33:19.689Z,6.86
2022-11-22T07:35:22.295Z,6.87
2022-11-22T07:37:26.498Z,6.89
2022-11-22T07:39:29.406Z,6.88
2022-11-22T07:41:32.209Z,6.88
2022-11-22T07:43:35.565Z,6.90
2022-11-22T07:45:38.235Z,6.90
2022-11-22T07:47:40.837Z,6.87
2022-11-22T07:49:43.451Z,6.90
2022-11-22T07:51:46.245Z,6.94
2022-11-22T07:53:50.464Z,6.94
2022-11-22T07:55:53.054Z,6.95
2022-11-22T07:57:55.635Z,7.10
2022-11-22T07:59:58.273Z,7.06
2022-11-22T08:02:00.909Z,7.10
2022-11-22T08:04:03.555Z,7.04
2022-11-22T08:06:07.749Z,7.08
2022-11-22T08:08:10.366Z,7.05
2022-11-22T08:10:14.497Z,7.02
2022-11-22T08:12:17.089Z,7.00
2022-11-22T08:14:21.506Z,7.07
2022-11-22T08:16:24.135Z,7.02
2022-11-22T08:18:26.750Z,7.03
2022-11-22T08:20:29.302Z,7.04
2022-11-22T08:22:32.111Z,6.97
2022-11-22T08:24:34.857Z,6.99
2022-11-22T08:26:38.887Z,6.97
2022-11-22T08:28:42.326Z,7.00
2022-11-22T08:30:44.923Z,6.98
2022-11-22T08:32:47.597Z,7.02
2022-11-22T08:34:50.202Z,7.00
2022-11-22T08:36:52.804Z,7.03
2022-11-22T08:38:55.509Z,7.13
2022-11-22T08:40:58.263Z,7.07
2022-11-22T08:43:02.205Z,7.08
2022-11-22T08:45:05.968Z,7.19
2022-11-22T08:47:08.573Z,7.09
2022-11-22T08:49:11.635Z,7.10
2022-11-22T08:51:15.331Z,7.12
2022-11-22T08:53:17.908Z,7.13
2022-11-22T08:55:20.526Z,7.18
2022-11-22T08:57:23.100Z,7.18
2022-11-22T08:59:27.224Z,7.21
2022-11-22T09:01:29.991Z,7.23
2022-11-22T09:03:32.794Z,7.25
2022-11-22T09:05:36.524Z,7.27
2022-11-22T09:10:02.027Z,7.27
2022-11-22T09:12:04.957Z,7.32
2022-11-22T09:14:07.595Z,7.33
2022-11-22T09:16:14.291Z,7.39
2022-11-22T09:18:16.937Z,7.38
2022-11-22T09:20:19.588Z,7.62
2022-11-22T09:22:28.042Z,7.59
2022-11-22T09:24:31.098Z,7.52
2022-11-22T09:26:33.834Z,7.60
2022-11-22T09:28:36.898Z,7.60
2022-11-22T09:30:39.512Z,7.68
2022-11-22T09:32:46.007Z,7.61
2022-11-22T09:34:48.633Z,7.63
2022-11-22T09:36:51.793Z,7.74
2022-11-22T09:38:55.944Z,7.65
2022-11-22T09:40:59.788Z,7.75
2022-11-22T09:43:15.621Z,7.75
2022-11-22T09:45:53.756Z,7.67
2022-11-22T09:48:09.776Z,7.89
2022-11-22T09:50:21.844Z,7.79
2022-11-22T09:52:29.169Z,7.75
2022-11-22T09:54:40.241Z,7.93
2022-11-22T09:56:44.809Z,7.75
2022-11-22T09:58:51.716Z,7.72
2022-11-22T10:00:57.495Z,7.68
2022-11-22T10:03:09.282Z,7.73
2022-11-22T10:05:18.557Z,7.73
2022-11-22T10:07:26.740Z,7.76
2022-11-22T10:09:39.744Z,7.82
2022-11-22T10:11:46.776Z,7.80
2022-11-22T10:13:56.287Z,7.78
2022-11-22T10:16:08.514Z,7.82
2022-11-22T10:18:23.553Z,7.88
2022-11-22T10:20:28.396Z,7.80
2022-11-22T10:22:31.260Z,7.85
2022-11-22T10:24:33.868Z,7.79
2022-11-22T10:26:39.386Z,7.81
2022-11-22T10:28:49.554Z,7.79
2022-11-22T10:31:00.307Z,7.78
2022-11-22T10:33:14.165Z,7.91
2022-11-22T10:35:28.045Z,7.91
2022-11-22T10:37:38.990Z,7.89
2022-11-22T10:40:04.102Z,7.93
2022-11-22T10:42:31.765Z,7.89
2022-11-22T10:44:48.602Z,7.94
2022-11-22T10:46:59.408Z,7.97
2022-11-22T10:49:11.512Z,7.97
2022-11-22T10:51:23.072Z,7.91
2022-11-22T10:53:34.922Z,8.03
2022-11-22T10:55:51.053Z,8.02
2022-11-22T10:58:03.654Z,8.14
2022-11-22T11:00:18.885Z,8.03
2022-11-22T11:02:48.571Z,8.20
2022-11-22T11:04:53.944Z,8.10
2022-11-22T11:07:15.421Z,8.09
2022-11-22T11:10:09.145Z,8.11
2022-11-22T11:11:48.097Z,8.05
2022-11-22T11:13:53.651Z,8.02
2022-11-22T11:15:58.837Z,8.01
2022-11-22T11:18:03.858Z,8.01
2022-11-22T11:20:17.727Z,7.99
2022-11-22T11:22:50.394Z,8.07
2022-11-22T11:24:47.472Z,8.19
2022-11-22T11:26:55.308Z,8.16
2022-11-22T11:29:39.079Z,8.11
2022-11-22T11:31:44.280Z,8.30
2022-11-22T11:33:47.662Z,8.23
2022-11-22T11:35:54.936Z,8.26
2022-11-22T11:37:58.887Z,8.32
2022-11-22T11:40:01.472Z,8.32
2022-11-22T11:42:23.364Z,8.22
2022-11-22T11:44:29.560Z,8.24
2022-11-22T11:46:45.860Z,8.48
2022-11-22T11:48:49.253Z,8.62
2022-11-22T11:50:51.895Z,8.40
2022-11-22T11:52:57.069Z,8.35
2022-11-22T11:55:03.564Z,8.33
2022-11-22T11:57:07.725Z,8.49
2022-11-22T11:59:14.213Z,8.42
2022-11-22T12:01:19.331Z,8.40
2022-11-22T12:03:23.839Z,8.39
2022-11-22T12:05:29.791Z,8.41
2022-11-22T12:07:43.695Z,8.54
2022-11-22T12:09:48.110Z,8.43
2022-11-22T12:11:53.350Z,8.53
2022-11-22T12:16:27.382Z,8.81
2022-11-22T12:18:39.713Z,8.76
2022-11-22T12:20:47.527Z,8.82
2022-11-22T12:23:02.088Z,8.76
2022-11-22T12:25:34.734Z,8.69
2022-11-22T12:27:39.473Z,8.78
2022-11-22T12:29:44.530Z,8.71
2022-11-22T12:31:53.955Z,8.77
2022-11-22T12:34:00.655Z,8.98
2022-11-22T12:36:05.874Z,8.88
2022-11-22T12:38:14.856Z,8.75
2022-11-22T12:40:19.697Z,8.72
2022-11-22T12:42:28.024Z,8.69
2022-11-22T12:44:37.931Z,8.78
2022-11-22T12:46:43.735Z,8.78
2022-11-22T12:48:49.753Z,8.75
2022-11-22T12:50:56.764Z,8.87
2022-11-22T12:53:04.027Z,8.76
2022-11-22T12:55:14.642Z,8.73
2022-11-22T12:57:22.225Z,8.73
2022-11-22T12:59:33.858Z,8.92
2022-11-22T13:01:45.318Z,8.87
2022-11-22T13:03:55.638Z,8.84
2022-11-22T13:06:00.904Z,8.86
2022-11-22T13:08:14.554Z,8.95
2022-11-22T13:10:27.360Z,8.73
2022-11-22T13:12:35.048Z,8.94
2022-11-22T13:14:41.161Z,8.82
2022-11-22T13:16:45.303Z,8.75
2022-11-22T13:18:55.265Z,8.96
2022-11-22T13:21:04.451Z,8.99
2022-11-22T13:23:27.705Z,8.96
2022-11-22T13:25:49.748Z,8.86
2022-11-22T13:27:52.995Z,8.78
2022-11-22T13:29:58.556Z,8.96
2022-11-22T13:32:05.111Z,8.99
2022-11-22T13:34:26.143Z,8.86
2022-11-22T13:36:39.102Z,8.82
2022-11-22T13:38:44.587Z,8.92
2022-11-22T13:40:50.503Z,8.83
2022-11-22T13:43:30.717Z,8.87
2022-11-22T13:45:47.618Z,8.95
2022-11-22T13:47:52.129Z,9.17
2022-11-22T13:49:54.979Z,9.17
2022-11-22T13:51:59.169Z,8.99
2022-11-22T13:54:32.067Z,9.19
2022-11-22T13:57:00.603Z,9.05
2022-11-22T13:59:15.713Z,8.96
2022-11-22T14:01:33.433Z,9.10
2022-11-22T14:03:42.874Z,9.11
2022-11-22T14:05:49.815Z,8.87
2022-11-22T14:07:53.295Z,8.84
2022-11-22T14:09:57.607Z,8.76
2022-11-22T14:12:38.723Z,8.94
2022-11-22T14:14:51.941Z,8.90
2022-11-22T14:17:06.228Z,8.80
2022-11-22T14:19:24.399Z,8.84
2022-11-22T14:22:00.368Z,8.83
2022-11-22T14:24:10.560Z,8.82
2022-11-22T14:26:22.537Z,8.77
2022-11-22T14:29:00.854Z,8.76
2022-11-22T14:31:14.634Z,8.62
2022-11-22T14:33:19.048Z,8.73
2022-11-22T14:35:29.787Z,8.66
2022-11-22T14:37:45.651Z,8.74
2022-11-22T14:40:01.908Z,8.71
2022-11-22T14:42:53.817Z,8.69
2022-11-22T14:44:57.183Z,8.52
2022-11-22T14:47:07.391Z,8.56
2022-11-22T14:49:16.019Z,8.58
2022-11-22T14:51:32.050Z,8.69
2022-11-22T14:53:43.480Z,8.44
2022-11-22T14:55:47.718Z,8.31
2022-11-22T14:57:58.332Z,8.34
2022-11-22T15:00:13.471Z,8.32
2022-11-22T15:02:54.748Z,8.26
2022-11-22T15:09:13.452Z,8.22
2022-11-22T15:09:17.449Z,8.19
2022-11-22T15:10:36.804Z,8.18
2022-11-22T15:12:55.620Z,8.15
2022-11-22T15:57:26.954Z,8.01
2022-11-22T15:59:35.086Z,8.02
2022-11-22T16:01:40.016Z,8.02
2022-11-22T16:03:43.774Z,8.00
2022-11-22T16:06:07.265Z,8.05
2022-11-22T16:08:16.780Z,8.02
2022-11-22T16:10:23.121Z,8.00
2022-11-22T16:12:36.647Z,8.06
2022-11-22T16:14:42.522Z,8.07
2022-11-22T16:16:45.293Z,8.07
2022-11-22T16:18:48.783Z,8.01
2022-11-22T16:21:00.037Z,8.05
2022-11-22T16:23:25.253Z,8.13
2022-11-22T16:25:32.823Z,8.12
2022-11-22T16:27:37.046Z,8.10
2022-11-22T16:29:39.770Z,8.17
2022-11-22T16:31:42.426Z,8.10
2022-11-22T16:33:45.695Z,8.06
2022-11-22T16:35:52.679Z,8.04
2022-11-22T16:37:55.379Z,8.04
2022-11-22T16:39:58.317Z,8.02
2022-11-22T16:42:00.995Z,8.15
2022-11-22T16:44:12.575Z,8.07
2022-11-22T16:46:15.304Z,8.03
2022-11-22T16:48:34.575Z,8.17
2022-11-22T16:50:40.011Z,8.10
2022-11-22T16:52:43.820Z,8.17
2022-11-22T16:54:46.458Z,8.17
2022-11-22T16:56:49.245Z,8.14
2022-11-22T16:58:53.241Z,8.06
2022-11-22T17:00:57.355Z,8.11
2022-11-22T17:03:01.234Z,8.20
2022-11-22T17:05:04.345Z,8.16
2022-11-22T17:07:10.157Z,8.01
2022-11-22T17:09:12.859Z,7.98
2022-11-22T17:11:21.213Z,7.94
2022-11-22T17:13:26.569Z,7.93
2022-11-22T17:15:29.317Z,8.06
2022-11-22T17:17:33.381Z,7.98
2022-11-22T17:19:52.870Z,7.99
2022-11-22T17:21:56.259Z,7.97
2022-11-22T17:24:04.335Z,7.88
2022-11-22T17:26:07.152Z,7.87
2022-11-22T17:28:09.762Z,8.07
2022-11-22T17:30:13.420Z,7.98
2022-11-22T17:32:16.056Z,8.04
2022-11-22T17:34:20.037Z,7.99
2022-11-22T17:36:27.578Z,8.05
2022-11-22T17:38:30.163Z,7.93
2022-11-22T17:40:33.954Z,7.94
2022-11-22T17:42:40.996Z,7.97
2022-11-22T17:44:44.022Z,7.89
2022-11-22T17:46:47.122Z,7.98
2022-11-22T17:48:52.840Z,7.88
2022-11-22T17:50:57.122Z,7.87
2022-11-22T17:52:59.736Z,7.87
2022-11-22T17:55:05.723Z,7.91
2022-11-22T17:57:09.574Z,7.85
2022-11-22T17:59:12.151Z,7.84
2022-11-22T18:01:18.387Z,7.80
2022-11-22T18:03:21.021Z,7.74
2022-11-22T18:05:23.673Z,7.72
2022-11-22T18:07:28.575Z,7.85
2022-11-22T18:09:31.707Z,7.74
2022-11-22T18:11:34.917Z,7.76
2022-11-22T18:13:39.643Z,7.69
2022-11-22T18:15:42.315Z,7.79
2022-11-22T18:17:44.968Z,7.71
2022-11-22T18:19:47.661Z,7.66
2022-11-22T18:21:50.361Z,7.70
2022-11-22T18:23:54.294Z,7.73
2022-11-22T18:26:17.054Z,7.62
2022-11-22T18:28:22.874Z,7.61
2022-11-22T18:30:25.541Z,7.61
2022-11-22T18:32:28.214Z,7.60
2022-11-22T18:34:31.688Z,7.56
2022-11-22T18:36:54.669Z,7.60
2022-11-22T18:38:58.363Z,7.64
2022-11-22T18:41:01.372Z,7.61
2022-11-22T18:43:03.984Z,7.61
2022-11-22T18:45:08.003Z,7.60
2022-11-22T18:47:11.232Z,7.64
2022-11-22T18:49:13.978Z,7.58
2022-11-22T18:51:16.927Z,7.56
2022-11-22T18:53:19.541Z,7.61
2022-11-22T18:55:23.698Z,7.55
2022-11-22T18:57:26.384Z,7.62
2022-11-22T18:59:29.008Z,7.59
2022-11-22T19:01:31.764Z,7.61
2022-11-22T19:03:35.240Z,7.60
2022-11-22T19:05:39.880Z,7.63
2022-11-22T19:07:42.533Z,7.72
2022-11-22T19:09:45.229Z,7.67
2022-11-22T19:11:49.314Z,7.61
2022-11-22T19:13:51.968Z,7.61
2022-11-22T19:15:54.549Z,7.61
2022-11-22T19:17:57.145Z,7.60
2022-11-22T19:19:59.749Z,7.62
2022-11-22T19:22:03.655Z,7.62
2022-11-22T19:24:06.993Z,7.72
2022-11-22T19:26:11.487Z,7.66
2022-11-22T19:28:15.521Z,7.62
2022-11-22T19:30:18.238Z,7.73
2022-11-22T19:32:21.076Z,7.68
2022-11-22T19:34:23.666Z,7.62
2022-11-22T19:36:32.684Z,7.60
2022-11-22T19:38:36.659Z,7.55
2022-11-22T19:40:41.427Z,7.54
2022-11-22T19:42:44.008Z,7.63
2022-11-22T19:44:47.928Z,7.55
2022-11-22T19:46:50.521Z,7.49
2022-11-22T19:48:53.518Z,7.50
2022-11-22T19:50:56.442Z,7.48
2022-11-22T19:52:59.087Z,7.45
2022-11-22T19:55:01.669Z,7.45
2022-11-22T19:57:04.307Z,7.44
2022-11-22T19:59:10.279Z,7.41
2022-11-22T20:01:15.581Z,7.39
2022-11-22T20:03:18.632Z,7.36
2022-11-22T20:05:21.851Z,7.33
2022-11-22T20:07:24.537Z,7.30
2022-11-22T20:09:27.294Z,7.33
2022-11-22T20:11:29.918Z,7.32
2022-11-22T20:13:36.289Z,7.27
2022-11-22T20:15:38.907Z,7.23
2022-11-22T20:17:42.893Z,7.16
2022-11-22T20:19:45.519Z,7.10
2022-11-22T20:21:49.533Z,7.07
2022-11-22T20:23:52.631Z,7.07
2022-11-22T20:25:55.326Z,7.01
2022-11-22T20:27:58.116Z,7.01
2022-11-22T20:30:01.301Z,7.00
2022-11-22T20:32:06.726Z,6.98
2022-11-22T20:34:11.266Z,6.95
2022-11-22T20:36:16.658Z,6.95
2022-11-22T20:38:19.308Z,6.91
2022-11-22T20:40:21.942Z,6.84
2022-11-22T20:42:34.265Z,6.84
2022-11-22T20:44:37.570Z,6.78
2022-11-22T20:46:40.839Z,6.73
2022-11-22T20:48:45.110Z,6.73
2022-11-22T20:50:52.339Z,6.66
2022-11-22T20:52:54.932Z,6.65
2022-11-22T20:55:03.359Z,6.66
2022-11-22T20:57:07.566Z,6.68
2022-11-22T20:59:10.371Z,6.64
2022-11-22T21:01:15.964Z,6.66
2022-11-22T21:03:18.601Z,6.72
2022-11-22T21:05:21.228Z,6.63
2022-11-22T21:07:25.692Z,6.63
2022-11-22T21:09:28.681Z,6.57
2022-11-22T21:11:32.617Z,6.55
2022-11-22T21:13:35.479Z,6.51
2022-11-22T21:15:38.185Z,6.53
2022-11-22T21:17:56.086Z,6.47
2022-11-22T21:20:03.364Z,6.44
2022-11-22T21:22:06.789Z,6.41
2022-11-22T21:24:13.660Z,6.38
2022-11-22T21:26:16.395Z,6.32
2022-11-22T21:28:19.003Z,6.23
2022-11-22T21:30:21.846Z,6.22
2022-11-22T21:32:24.478Z,6.18
2022-11-22T21:34:27.123Z,6.17
2022-11-22T21:36:32.682Z,6.12
2022-11-22T21:38:38.300Z,6.08
2022-11-22T21:40:50.381Z,5.93
2022-11-22T21:42:53.287Z,5.88
2022-11-22T21:44:55.990Z,5.86
2022-11-22T21:46:58.789Z,5.87
2022-11-22T21:49:01.415Z,5.87
2022-11-22T21:51:04.505Z,5.87
2022-11-22T21:53:07.158Z,5.84
2022-11-22T21:55:11.519Z,5.81
2022-11-22T21:57:15.721Z,5.77
2022-11-22T21:59:18.640Z,5.74
2022-11-22T22:01:21.316Z,5.71
2022-11-22T22:03:24.489Z,5.65
2022-11-22T22:05:30.016Z,5.64
2022-11-22T22:09:55.299Z,5.51
2022-11-22T22:11:58.148Z,5.56
2022-11-22T22:14:02.175Z,5.54
2022-11-22T22:16:07.305Z,5.50
2022-11-22T22:18:09.968Z,5.47
2022-11-22T22:20:12.833Z,5.41
2022-11-22T22:22:15.520Z,5.36
2022-11-22T22:24:18.153Z,5.29
2022-11-22T22:26:20.823Z,5.41
2022-11-22T22:28:24.222Z,5.38
2022-11-22T22:30:28.124Z,5.32
2022-11-22T22:32:30.722Z,5.31
2022-11-22T22:34:33.301Z,5.28
2022-11-22T22:36:35.962Z,5.31
2022-11-22T22:38:39.655Z,5.32
2022-11-22T22:40:42.279Z,5.28
2022-11-22T22:42:44.890Z,5.34
2022-11-22T22:44:47.488Z,5.31
2022-11-22T22:46:51.494Z,5.32
2022-11-22T22:48:56.078Z,5.35
2022-11-22T22:51:05.172Z,5.37
2022-11-22T22:53:07.842Z,5.36
2022-11-22T22:55:10.644Z,5.33
2022-11-22T22:57:13.323Z,5.30
2022-11-22T22:59:16.070Z,5.28
2022-11-22T23:01:20.331Z,5.22
2022-11-22T23:03:24.310Z,5.18
2022-11-22T23:05:27.019Z,5.15
2022-11-22T23:07:29.733Z,5.15
2022-11-22T23:09:32.644Z,5.16
2022-11-22T23:11:54.191Z,5.12
2022-11-22T23:13:56.785Z,5.15
2022-11-22T23:16:00.144Z,5.19
2022-11-22T23:18:02.736Z,5.14
2022-11-22T23:20:07.778Z,5.05
2022-11-22T23:22:10.325Z,5.01
2022-11-22T23:24:13.537Z,4.94
2022-11-22T23:26:16.149Z,4.97
2022-11-22T23:28:18.772Z,4.91
2022-11-22T23:30:21.487Z,4.90
2022-11-22T23:32:26.789Z,4.89
2022-11-22T23:34:30.782Z,4.89
2022-11-22T23:36:40.177Z,4.89
2022-11-22T23:38:44.052Z,4.90
2022-11-22T23:40:53.738Z,4.92
2022-11-22T23:42:58.073Z,4.93
2022-11-22T23:45:00.686Z,4.99
2022-11-22T23:47:03.273Z,5.01
2022-11-22T23:49:06.296Z,5.03
2022-11-22T23:51:09.254Z,5.10
2022-11-22T23:53:13.234Z,5.04
2022-11-22T23:55:15.909Z,5.03
2022-11-22T23:57:18.549Z,4.99
2022-11-22T23:59:21.680Z,4.99
